Time;durP1;ratioP1;P1;durP2;ratioP2;P2;SDS_P1;SDS_P2;PMS_P1;PMS_P2;Temp;Humidity;BMP_temperature;BMP_pressure;BME280_temperature;BME280_humidity;BME280_pressure;Samples;Min_cycle;Max_cycle;Signal;HPM_P1;HPM_P2
2022/06/11 00:01:53;;;;;;;0.10;0.10;;;;;;;21.43;50.40;101731.50;5115423;28;20133;-34
2022/06/11 00:04:22;;;;;;;0.10;0.10;;;;;;;21.44;50.47;101732.31;5102612;28;20070;-32
2022/06/11 00:06:51;;;;;;;0.10;0.10;;;;;;;21.43;50.31;101739.81;5097255;28;20109;-32
2022/06/11 00:09:18;;;;;;;0.10;0.10;;;;;;;21.43;50.37;101741.75;5098523;28;20459;-33
2022/06/11 00:11:43;;;;;;;0.10;0.10;;;;;;;21.42;50.43;101734.53;5084242;28;20131;-32
2022/06/11 00:14:10;;;;;;;0.10;0.10;;;;;;;21.42;50.43;101729.84;5118913;28;20146;-35
2022/06/11 00:16:36;;;;;;;0.10;0.10;;;;;;;21.43;50.25;101725.94;5099809;28;20067;-33
2022/06/11 00:19:03;;;;;;;0.10;0.10;;;;;;;21.42;50.27;101724.28;5118309;28;20428;-32
2022/06/11 00:21:32;;;;;;;0.13;0.13;;;;;;;21.43;50.45;101723.16;5082166;28;20087;-34
2022/06/11 00:23:58;;;;;;;0.10;0.10;;;;;;;21.43;50.34;101730.66;5096427;28;20070;-32
2022/06/11 00:26:23;;;;;;;0.10;0.10;;;;;;;21.43;50.43;101725.13;5115916;28;20071;-35
2022/06/11 00:28:49;;;;;;;0.10;0.10;;;;;;;21.43;50.35;101727.88;5118281;28;20047;-34
2022/06/11 00:31:16;;;;;;;0.10;0.10;;;;;;;21.43;50.46;101722.34;5100827;28;20131;-34
2022/06/11 00:33:42;;;;;;;0.10;0.10;;;;;;;21.43;50.33;101733.44;5104673;28;20046;-33
2022/06/11 00:36:09;;;;;;;0.10;0.10;;;;;;;21.43;50.26;101733.44;5116864;28;20397;-33
2022/06/11 00:38:36;;;;;;;0.10;0.10;;;;;;;21.42;50.44;101734.53;5118965;28;20134;-33
2022/06/11 00:41:02;;;;;;;0.10;0.10;;;;;;;21.42;50.35;101732.59;5096746;28;20075;-34
2022/06/11 00:43:28;;;;;;;0.10;0.10;;;;;;;21.43;50.13;101736.19;5116614;28;20124;-34
2022/06/11 00:46:34;;;;;;;0.10;0.10;;;;;;;21.41;50.32;101736.47;5093140;28;20523;-33
2022/06/11 00:49:02;;;;;;;0.10;0.10;;;;;;;21.42;50.48;101738.16;5102757;28;20124;-35
2022/06/11 00:51:27;;;;;;;0.10;0.10;;;;;;;21.41;50.28;101738.41;5118687;28;20147;-32
2022/06/11 00:53:57;;;;;;;0.10;0.10;;;;;;;21.42;50.28;101740.09;5118808;28;20465;-34
2022/06/11 00:56:28;;;;;;;0.10;0.10;;;;;;;21.41;50.36;101735.63;5100351;28;20134;-34
2022/06/11 00:58:56;;;;;;;0.10;0.10;;;;;;;21.42;50.34;101737.31;5097718;28;20165;-34
2022/06/11 01:01:23;;;;;;;0.10;0.10;;;;;;;21.42;50.34;101742.84;5118387;28;20130;-34
2022/06/11 01:03:52;;;;;;;0.10;0.10;;;;;;;21.41;50.34;101739.22;5099455;28;20478;-34
2022/06/11 01:06:27;;;;;;;0.10;0.10;;;;;;;21.40;50.42;101734.81;5096928;28;20086;-34
2022/06/11 01:09:15;;;;;;;0.10;0.10;;;;;;;21.42;50.42;101731.78;5113980;28;20122;-34
2022/06/11 01:12:05;;;;;;;0.10;0.10;;;;;;;21.41;50.30;101735.63;5085385;28;20495;-34
2022/06/11 01:17:30;;;;;;;0.10;0.10;;;;;;;21.40;50.28;101733.97;5164879;27;20140;-32
2022/06/11 01:23:09;;;;;;;0.10;0.10;;;;;;;21.40;50.36;101729.25;5164180;27;20201;-32
2022/06/11 01:26:16;;;;;;;0.10;0.10;;;;;;;21.40;50.37;101729.25;5135378;27;20069;-32
2022/06/11 01:28:52;;;;;;;0.10;0.10;;;;;;;21.40;50.25;101734.81;5138645;27;20464;-32
2022/06/11 01:31:23;;;;;;;0.10;0.10;;;;;;;21.41;50.42;101730.09;5136521;27;20477;-32
2022/06/11 01:34:13;;;;;;;0.10;0.10;;;;;;;21.40;50.35;101734.81;5134362;27;20089;-32
2022/06/11 01:36:41;;;;;;;0.10;0.10;;;;;;;21.40;50.41;101731.19;5122369;27;20075;-33
2022/06/11 01:39:13;;;;;;;0.10;0.10;;;;;;;21.40;50.44;101731.19;5149683;27;20119;-33
2022/06/11 01:41:45;;;;;;;0.13;0.13;;;;;;;21.40;50.34;101729.25;5128473;27;20135;-32
2022/06/11 01:44:18;;;;;;;0.10;0.10;;;;;;;21.39;50.44;101727.59;5131442;27;20131;-32
2022/06/11 01:46:47;;;;;;;0.10;0.10;;;;;;;21.40;50.34;101729.25;5116766;27;20113;-32
2022/06/11 01:52:26;;;;;;;0.10;0.10;;;;;;;21.40;50.38;101726.50;5160944;27;20125;-34
2022/06/11 01:55:02;;;;;;;0.10;0.10;;;;;;;21.40;50.31;101722.88;5131488;27;20088;-32
2022/06/11 01:58:08;;;;;;;0.10;0.10;;;;;;;21.39;50.44;101724.00;5149066;27;20133;-32
2022/06/11 02:00:37;;;;;;;0.13;0.13;;;;;;;21.40;50.31;101728.44;5130247;27;20513;-32
2022/06/11 02:03:29;;;;;;;0.10;0.10;;;;;;;21.40;50.37;101731.19;5131176;27;20079;-32
2022/06/11 02:06:05;;;;;;;0.10;0.10;;;;;;;21.40;50.45;101736.75;5132054;27;20481;-32
2022/06/11 02:11:26;;;;;;;0.10;0.10;;;;;;;21.40;50.28;101739.50;5166506;27;20125;-33
2022/06/11 02:13:59;;;;;;;0.10;0.10;;;;;;;21.40;50.43;101745.06;5154029;27;20477;-32
2022/06/11 02:16:32;;;;;;;0.10;0.10;;;;;;;21.39;50.23;101741.47;5112772;27;20594;-33
2022/06/11 02:19:00;;;;;;;0.10;0.10;;;;;;;21.40;50.48;101745.06;5146536;27;20456;-34
2022/06/11 02:21:29;;;;;;;0.10;0.10;;;;;;;21.40;50.36;101745.06;5133595;27;20066;-34
2022/06/11 02:24:01;;;;;;;0.10;0.10;;;;;;;21.39;50.37;101747.00;5145461;27;20138;-34
2022/06/11 02:26:32;;;;;;;0.10;0.10;;;;;;;21.38;50.48;101737.03;5130834;27;20089;-34
2022/06/11 02:28:59;;;;;;;0.10;0.10;;;;;;;21.39;50.31;101746.16;5147764;27;20039;-34
2022/06/11 02:31:30;;;;;;;0.10;0.10;;;;;;;21.38;50.32;101742.56;5147851;27;20133;-34
2022/06/11 02:33:56;;;;;;;0.10;0.10;;;;;;;21.40;50.29;101745.06;5150555;27;20034;-34
2022/06/11 02:36:27;;;;;;;0.10;0.10;;;;;;;21.39;50.27;101744.22;5147798;27;20076;-34
2022/06/11 02:38:55;;;;;;;0.10;0.10;;;;;;;21.38;50.37;101738.97;5130538;27;20078;-34
2022/06/11 02:41:26;;;;;;;0.10;0.10;;;;;;;21.39;50.40;101743.41;5114116;27;20077;-34
2022/06/11 02:43:52;;;;;;;0.10;0.10;;;;;;;21.39;50.34;101746.16;5132370;27;20126;-34
2022/06/11 02:46:49;;;;;;;0.10;0.10;;;;;;;21.39;50.34;101751.72;5144082;27;20130;-34
2022/06/11 02:49:06;;;;;;;0.10;0.10;;;;;;;21.38;50.37;101753.66;5129664;27;20521;-34
2022/06/11 02:51:32;;;;;;;0.10;0.10;;;;;;;21.37;50.30;101760.28;5151278;27;20079;-34
2022/06/11 02:53:58;;;;;;;0.10;0.10;;;;;;;21.38;50.32;101755.59;5127973;27;20035;-34
2022/06/11 02:56:24;;;;;;;0.10;0.10;;;;;;;21.38;50.24;101753.66;5129801;27;20085;-34
2022/06/11 02:58:50;;;;;;;0.10;0.10;;;;;;;21.37;50.21;101754.75;5145379;27;20051;-34
2022/06/11 03:01:17;;;;;;;0.10;0.10;;;;;;;21.38;50.46;101747.28;5148964;27;20070;-34
2022/06/11 03:03:43;;;;;;;0.10;0.10;;;;;;;21.39;50.37;101760.03;5146284;27;20071;-34
2022/06/11 03:06:09;;;;;;;0.10;0.10;;;;;;;21.38;50.44;101758.38;5127506;27;20038;-34
2022/06/11 03:08:35;;;;;;;0.10;0.10;;;;;;;21.38;50.45;101753.66;5150484;27;20125;-34
2022/06/11 03:11:01;;;;;;;0.10;0.10;;;;;;;21.39;50.31;101771.09;5146791;27;20549;-34
2022/06/11 03:13:28;;;;;;;0.10;0.10;;;;;;;21.38;50.39;101761.97;5131631;27;20053;-34
2022/06/11 03:15:54;;;;;;;0.10;0.10;;;;;;;21.37;50.28;101757.50;5127367;27;20146;-33
2022/06/11 03:18:20;;;;;;;0.10;0.10;;;;;;;21.38;50.32;101758.38;5126500;27;20046;-34
2022/06/11 03:20:46;;;;;;;0.10;0.10;;;;;;;21.38;50.28;101763.91;5123871;27;20176;-33
2022/06/11 03:23:12;;;;;;;0.10;0.10;;;;;;;21.37;50.27;101760.28;5134206;27;20205;-34
2022/06/11 03:25:38;;;;;;;0.10;0.10;;;;;;;21.38;50.27;101763.91;5133709;27;20081;-35
2022/06/11 03:28:07;;;;;;;0.10;0.10;;;;;;;21.37;50.30;101757.50;5132266;27;20043;-32
2022/06/11 03:30:33;;;;;;;0.10;0.10;;;;;;;21.38;50.30;101766.69;5117499;28;20126;-32
2022/06/11 03:32:59;;;;;;;0.15;0.15;;;;;;;21.37;50.36;101760.28;5133816;27;20043;-34
2022/06/11 03:35:24;;;;;;;0.10;0.10;;;;;;;21.37;50.30;101757.50;5135092;27;20450;-33
2022/06/11 03:37:50;;;;;;;0.10;0.10;;;;;;;21.37;50.41;101760.28;5132153;27;20049;-34
2022/06/11 03:40:16;;;;;;;0.10;0.10;;;;;;;21.38;50.27;101761.13;5134279;27;20080;-33
2022/06/11 03:42:42;;;;;;;0.10;0.10;;;;;;;21.38;50.32;101763.91;5114500;28;20043;-33
2022/06/11 03:45:09;;;;;;;0.10;0.10;;;;;;;21.37;50.32;101768.59;5117533;28;20573;-33
2022/06/11 03:47:38;;;;;;;0.10;0.10;;;;;;;21.37;50.37;101762.22;5114125;28;20754;-33
2022/06/11 03:50:07;;;;;;;0.10;0.10;;;;;;;21.37;50.23;101762.22;5112678;28;20482;-32
2022/06/11 03:52:33;;;;;;;0.10;0.10;;;;;;;21.36;50.32;101769.72;5095296;28;20129;-32
2022/06/11 03:54:59;;;;;;;0.10;0.10;;;;;;;21.38;50.40;101775.00;5113934;28;21194;-33
2022/06/11 03:57:25;;;;;;;0.10;0.10;;;;;;;21.37;50.37;101774.13;5111490;28;20042;-34
2022/06/11 03:59:51;;;;;;;0.10;0.10;;;;;;;21.37;50.37;101774.13;5094674;28;20050;-33
2022/06/11 04:02:16;;;;;;;0.10;0.10;;;;;;;21.36;50.39;101769.72;5113861;28;20075;-33
2022/06/11 04:04:42;;;;;;;0.10;0.10;;;;;;;21.37;50.45;101779.69;5114184;28;20048;-33
2022/06/11 04:07:09;;;;;;;0.10;0.10;;;;;;;21.37;50.54;101779.69;5098249;28;21241;-32
2022/06/11 04:09:39;;;;;;;0.10;0.10;;;;;;;21.36;50.31;101769.72;5097000;28;20082;-32
2022/06/11 04:12:09;;;;;;;0.10;0.10;;;;;;;21.36;50.41;101783.56;5112738;28;20166;-33
2022/06/11 04:14:35;;;;;;;0.10;0.10;;;;;;;21.37;50.41;101781.63;5098416;28;20122;-34
2022/06/11 04:17:06;;;;;;;0.10;0.10;;;;;;;21.35;50.46;101784.69;5111160;28;20318;-33
2022/06/11 04:19:35;;;;;;;0.10;0.10;;;;;;;21.36;50.40;101782.72;5092633;28;20075;-34
2022/06/11 04:22:01;;;;;;;0.10;0.10;;;;;;;21.37;50.34;101787.16;5091920;28;20086;-33
2022/06/11 04:24:27;;;;;;;0.10;0.10;;;;;;;21.36;50.40;101778.03;5097094;28;20035;-34
2022/06/11 04:26:55;;;;;;;0.10;0.10;;;;;;;21.36;50.28;101774.41;5092843;28;20094;-33
2022/06/11 04:29:25;;;;;;;0.10;0.10;;;;;;;21.36;50.43;101788.28;5096814;28;20082;-34
2022/06/11 04:31:53;;;;;;;0.10;0.10;;;;;;;21.34;50.43;101788.56;5096689;28;20043;-34
2022/06/11 04:34:20;;;;;;;0.10;0.10;;;;;;;21.35;50.45;101781.91;5078110;28;20046;-33
2022/06/11 04:36:47;;;;;;;0.10;0.10;;;;;;;21.35;50.21;101798.53;5110356;28;20130;-33
2022/06/11 04:39:14;;;;;;;0.10;0.10;;;;;;;21.35;50.32;101784.69;5111749;28;20134;-33
2022/06/11 04:41:40;;;;;;;0.10;0.10;;;;;;;21.36;50.42;101791.03;5113063;28;20587;-33
2022/06/11 04:44:06;;;;;;;0.10;0.10;;;;;;;21.36;50.31;101791.88;5110852;28;20039;-34
2022/06/11 04:46:32;;;;;;;0.10;0.10;;;;;;;21.35;50.33;101787.44;5077655;28;20097;-34
2022/06/11 04:48:59;;;;;;;0.10;0.10;;;;;;;21.34;50.25;101783.03;5116429;28;20046;-33
2022/06/11 04:51:24;;;;;;;0.10;0.10;;;;;;;21.35;50.26;101786.63;5111168;28;20085;-34
2022/06/11 04:53:50;;;;;;;0.10;0.10;;;;;;;21.34;50.34;101791.34;5099507;28;20040;-33
2022/06/11 04:56:21;;;;;;;0.10;0.10;;;;;;;21.36;50.39;101800.19;5114099;28;20039;-33
2022/06/11 04:58:47;;;;;;;0.10;0.10;;;;;;;21.35;50.24;101798.53;5115343;28;20113;-33
2022/06/11 05:01:13;;;;;;;0.10;0.10;;;;;;;21.35;50.13;101803.25;5094229;28;20186;-33
2022/06/11 05:03:39;;;;;;;0.10;0.10;;;;;;;21.35;50.37;101794.94;5112631;28;20398;-33
2022/06/11 05:06:06;;;;;;;0.10;0.10;;;;;;;21.35;50.38;101803.25;5093603;28;20039;-33
2022/06/11 05:08:31;;;;;;;0.10;0.10;;;;;;;21.34;50.43;101802.41;5094708;28;20538;-32
2022/06/11 05:10:57;;;;;;;0.10;0.10;;;;;;;21.35;50.49;101808.78;5110116;28;20047;-34
2022/06/11 05:13:23;;;;;;;0.10;0.10;;;;;;;21.35;50.43;101808.78;5110728;28;20284;-34
2022/06/11 05:15:53;;;;;;;0.10;0.10;;;;;;;21.35;50.40;101801.31;5092678;28;20046;-34
2022/06/11 05:18:19;;;;;;;0.10;0.10;;;;;;;21.34;50.24;101802.41;5090885;28;20040;-33
2022/06/11 05:20:45;;;;;;;0.10;0.10;;;;;;;21.34;50.43;101801.59;5111798;28;20083;-32
2022/06/11 05:23:11;;;;;;;0.10;0.10;;;;;;;21.34;50.41;101802.41;5114613;28;20148;-33
2022/06/11 05:25:39;;;;;;;0.10;0.10;;;;;;;21.35;50.35;101806.84;5094074;28;20048;-34
2022/06/11 05:28:07;;;;;;;0.10;0.10;;;;;;;21.34;50.34;101798.81;5108007;28;20090;-34
2022/06/11 05:30:33;;;;;;;0.10;0.10;;;;;;;21.35;50.40;101798.53;5093150;28;20445;-32
2022/06/11 05:33:00;;;;;;;0.10;0.10;;;;;;;21.35;50.35;101808.78;5109432;28;20344;-33
2022/06/11 05:35:28;;;;;;;0.10;0.10;;;;;;;21.35;50.23;101806.00;5110939;28;20035;-34
2022/06/11 05:37:55;;;;;;;0.10;0.10;;;;;;;21.35;50.31;101815.16;5109783;28;20039;-34
2022/06/11 05:40:24;;;;;;;0.10;0.10;;;;;;;21.34;50.15;101819.03;5112780;28;20481;-32
2022/06/11 05:42:50;;;;;;;0.10;0.10;;;;;;;21.34;50.28;101812.66;5093027;28;20135;-34
2022/06/11 05:45:28;;;;;;;0.10;0.10;;;;;;;21.33;50.34;101816.53;5090864;28;20485;-32
2022/06/11 05:47:54;;;;;;;0.10;0.10;;;;;;;21.34;50.39;101812.66;5092960;28;20082;-34
2022/06/11 05:50:23;;;;;;;0.10;0.10;;;;;;;21.33;50.43;101816.53;5091432;28;20126;-32
2022/06/11 05:52:49;;;;;;;0.10;0.10;;;;;;;21.34;50.35;101815.44;5095022;28;20043;-32
2022/06/11 05:55:17;;;;;;;0.10;0.10;;;;;;;21.35;50.34;101814.31;5112901;28;20054;-33
2022/06/11 05:57:45;;;;;;;0.10;0.10;;;;;;;21.34;50.31;101819.03;5091356;28;20143;-34
2022/06/11 06:00:14;;;;;;;0.10;0.10;;;;;;;21.35;50.24;101819.88;5112831;28;20113;-34
2022/06/11 06:02:40;;;;;;;;;;;;;;;21.34;50.22;101821.81;5110314;28;20123;-34
2022/06/11 06:05:08;;;;;;;0.10;0.10;;;;;;;21.33;50.36;101830.38;5110566;28;19971;-34
2022/06/11 06:07:33;;;;;;;0.10;0.10;;;;;;;21.33;50.42;101824.84;5109078;28;20039;-32
2022/06/11 06:09:59;;;;;;;0.10;0.10;;;;;;;21.33;50.18;101824.84;5114276;28;20053;-32
2022/06/11 06:12:25;;;;;;;0.10;0.10;;;;;;;21.33;50.33;101825.69;5112171;28;20470;-34
2022/06/11 06:14:51;;;;;;;0.10;0.10;;;;;;;21.33;50.50;101828.47;5107235;28;20454;-32
2022/06/11 06:17:17;;;;;;;0.10;0.10;;;;;;;21.32;50.19;101824.00;5112070;28;20499;-33
2022/06/11 06:19:58;;;;;;;0.10;0.10;;;;;;;21.33;50.42;101830.38;5112090;28;20482;-33
2022/06/11 06:22:24;;;;;;;0.10;0.10;;;;;;;21.33;50.38;101831.25;5109881;28;20040;-32
2022/06/11 06:24:49;;;;;;;0.10;0.10;;;;;;;21.33;50.41;101836.78;5110800;28;20051;-33
2022/06/11 06:27:15;;;;;;;0.10;0.10;;;;;;;21.32;50.40;101837.84;5109296;28;20048;-32
2022/06/11 06:29:41;;;;;;;0.10;0.10;;;;;;;21.32;50.45;101839.81;5111999;28;20047;-32
2022/06/11 06:32:07;;;;;;;0.10;0.10;;;;;;;21.33;50.16;101844.22;5112105;28;20500;-34
2022/06/11 06:34:32;;;;;;;0.10;0.10;;;;;;;21.33;50.23;101844.22;5111375;28;20392;-32
2022/06/11 06:36:58;;;;;;;0.10;0.10;;;;;;;21.32;50.23;101846.16;5109474;28;20040;-32
2022/06/11 06:39:23;;;;;;;0.10;0.10;;;;;;;21.33;50.32;101841.47;5113148;28;20050;-32
2022/06/11 06:41:49;;;;;;;0.10;0.10;;;;;;;21.33;50.43;101844.22;5107913;28;20058;-32
2022/06/11 06:44:16;;;;;;;0.10;0.10;;;;;;;21.32;50.32;101840.63;5109500;28;20482;-32
2022/06/11 06:46:43;;;;;;;0.10;0.10;;;;;;;21.33;50.39;101847.84;5091959;28;20474;-32
2022/06/11 06:49:14;;;;;;;0.10;0.10;;;;;;;21.32;50.33;101846.16;5093875;28;20455;-34
2022/06/11 06:51:40;;;;;;;0.10;0.10;;;;;;;21.34;50.34;101851.47;5113302;28;20039;-33
2022/06/11 06:54:06;;;;;;;0.10;0.10;;;;;;;21.32;50.39;101843.41;5109266;28;20087;-34
2022/06/11 06:56:33;;;;;;;0.10;0.10;;;;;;;21.33;50.31;101855.31;5110969;27;20401;-34
2022/06/11 06:59:01;;;;;;;0.10;0.10;;;;;;;21.32;50.35;101850.88;5113050;28;20093;-32
2022/06/11 07:01:27;;;;;;;0.10;0.10;;;;;;;21.32;50.18;101860.03;5115319;28;20146;-34
2022/06/11 07:03:53;;;;;;;0.10;0.10;;;;;;;21.32;50.20;101856.44;5080188;28;20177;-32
2022/06/11 07:06:40;;;;;;;0.10;0.10;;;;;;;21.32;50.32;101856.44;5098931;28;20043;-32
2022/06/11 07:09:06;;;;;;;0.10;0.10;;;;;;;21.31;50.24;101855.56;5116985;28;20192;-32
2022/06/11 07:11:32;;;;;;;0.10;0.10;;;;;;;21.32;50.30;101856.44;5080834;28;20048;-33
2022/06/11 07:13:58;;;;;;;0.10;0.10;;;;;;;21.32;50.43;101862.78;5095131;28;20050;-34
2022/06/11 07:16:30;;;;;;;0.10;0.10;;;;;;;21.31;50.39;101858.34;5114999;28;20074;-32
2022/06/11 07:18:59;;;;;;;0.20;0.20;;;;;;;21.32;50.33;101860.03;5114960;28;20043;-32
2022/06/11 07:21:35;;;;;;;0.10;0.10;;;;;;;21.32;50.23;101859.19;5095410;28;20071;-32
2022/06/11 07:24:05;;;;;;;0.10;0.10;;;;;;;21.30;50.36;101854.75;5117919;28;20083;-32
2022/06/11 07:26:36;;;;;;;0.10;0.10;;;;;;;21.31;50.28;101850.03;5093659;28;20185;-37
2022/06/11 07:29:09;;;;;;;0.10;0.10;;;;;;;21.30;50.38;101857.50;5095571;28;20142;-35
2022/06/11 07:31:35;;;;;;;0.10;0.10;;;;;;;21.31;50.39;101852.78;5095514;28;20473;-35
2022/06/11 07:34:01;;;;;;;0.10;0.10;;;;;;;21.32;50.24;101862.78;5115441;28;20405;-35
2022/06/11 07:36:27;;;;;;;0.10;0.10;;;;;;;21.32;50.40;101864.72;5095978;28;20474;-35
2022/06/11 07:38:53;;;;;;;0.10;0.10;;;;;;;21.30;50.28;101854.75;5114339;28;20044;-36
2022/06/11 07:41:18;;;;;;;0.10;0.10;;;;;;;21.31;50.33;101861.09;5113741;28;20050;-36
2022/06/11 07:43:44;;;;;;;0.10;0.10;;;;;;;21.31;50.35;101858.34;5114437;28;20054;-34
2022/06/11 07:46:10;;;;;;;0.10;0.10;;;;;;;21.31;50.41;101861.09;5093855;28;20050;-35
2022/06/11 07:48:36;;;;;;;0.10;0.10;;;;;;;21.31;50.41;101869.41;5112379;28;20463;-35
2022/06/11 07:51:02;;;;;;;0.10;0.10;;;;;;;21.31;50.41;101861.09;5113334;28;20086;-35
2022/06/11 07:53:28;;;;;;;0.10;0.10;;;;;;;21.30;50.18;101867.75;5096102;28;20081;-35
2022/06/11 07:55:54;;;;;;;0.10;0.10;;;;;;;21.32;50.19;101867.50;5115495;28;20046;-36
2022/06/11 07:58:24;;;;;;;0.10;0.10;;;;;;;21.32;50.27;101862.78;5114144;28;20088;-35
2022/06/11 08:00:51;;;;;;;0.10;0.10;;;;;;;21.30;50.38;101868.59;5096803;28;20079;-35
2022/06/11 08:03:18;;;;;;;0.10;0.10;;;;;;;21.30;50.22;101871.34;5113113;28;20497;-35
2022/06/11 08:05:44;;;;;;;0.10;0.10;;;;;;;21.29;50.46;101875.25;5108839;28;20391;-35
2022/06/11 08:08:11;;;;;;;0.10;0.10;;;;;;;21.32;50.41;101878.59;5115176;28;20075;-35
2022/06/11 08:10:38;;;;;;;0.10;0.10;;;;;;;21.32;50.45;101875.81;5107769;28;20173;-35
2022/06/11 08:13:05;;;;;;;0.10;0.10;;;;;;;21.32;50.24;101881.38;5096345;28;20492;-35
2022/06/11 08:15:32;;;;;;;0.10;0.10;;;;;;;21.32;50.32;101884.13;5109961;28;20054;-34
2022/06/11 08:17:58;;;;;;;0.10;0.10;;;;;;;21.30;50.22;101879.66;5092679;28;20052;-35
2022/06/11 08:20:28;;;;;;;0.10;0.10;;;;;;;21.31;50.17;101874.97;5092677;28;20050;-35
2022/06/11 08:22:54;;;;;;;0.10;0.10;;;;;;;21.31;50.35;101883.28;5108562;28;20138;-35
2022/06/11 08:25:21;;;;;;;0.10;0.10;;;;;;;21.31;50.28;101886.03;5111979;28;20075;-35
2022/06/11 08:27:46;;;;;;;0.10;0.10;;;;;;;21.30;50.19;101884.38;5111320;28;20128;-35
2022/06/11 08:30:14;;;;;;;0.10;0.10;;;;;;;21.31;50.25;101880.50;5093553;28;20044;-35
2022/06/11 08:32:39;;;;;;;0.10;0.10;;;;;;;21.30;50.35;101885.22;5112726;28;20079;-35
2022/06/11 08:35:05;;;;;;;0.10;0.10;;;;;;;21.30;50.34;101881.63;5093238;28;20052;-35
2022/06/11 08:37:31;;;;;;;0.10;0.10;;;;;;;21.29;50.29;101886.31;5110773;28;20083;-35
2022/06/11 08:39:57;;;;;;;0.10;0.10;;;;;;;21.30;50.00;101887.97;5113892;28;20054;-35
2022/06/11 08:42:36;;;;;;;0.10;0.10;;;;;;;21.31;50.22;101897.13;5111650;28;20074;-35
2022/06/11 08:45:07;;;;;;;0.10;0.10;;;;;;;21.29;50.26;101878.00;5092192;28;20094;-35
2022/06/11 08:47:36;;;;;;;0.10;0.10;;;;;;;21.30;50.36;101887.97;5093454;28;20126;-35
2022/06/11 08:50:03;;;;;;;0.10;0.10;;;;;;;21.30;50.17;101884.38;5111333;28;20095;-35
2022/06/11 08:52:31;;;;;;;0.10;0.10;;;;;;;21.30;50.34;101874.13;5111374;28;20508;-35
2022/06/11 08:54:57;;;;;;;0.10;0.10;;;;;;;21.31;50.41;101886.03;5111704;28;20078;-35
2022/06/11 08:57:54;;;;;;;0.10;0.10;;;;;;;21.30;50.18;101879.66;5110397;28;20120;-34
2022/06/11 09:00:25;;;;;;;0.10;0.10;;;;;;;21.31;50.29;101886.03;5095510;28;20083;-35
2022/06/11 09:03:21;;;;;;;0.10;0.10;;;;;;;21.30;50.38;101881.63;5097601;28;20078;-35
2022/06/11 09:06:20;;;;;;;0.10;0.10;;;;;;;21.29;50.38;101878.00;5098478;28;20134;-35
2022/06/11 09:09:25;;;;;;;0.10;0.10;;;;;;;21.29;50.19;101880.78;5112095;28;20220;-35
2022/06/11 09:12:14;;;;;;;0.10;0.10;;;;;;;21.29;50.23;101877.19;5098412;28;20499;-35
2022/06/11 09:15:01;;;;;;;0.10;0.10;;;;;;;21.30;50.26;101878.84;5095082;28;20484;-35
2022/06/11 09:17:52;;;;;;;0.10;0.10;;;;;;;21.28;50.24;101879.09;5110847;28;20199;-35
2022/06/11 09:20:35;;;;;;;0.10;0.10;;;;;;;21.29;50.21;101882.72;5101647;28;20440;-35
2022/06/11 09:23:39;;;;;;;0.20;0.20;;;;;;;21.30;50.34;101881.63;5110191;28;20534;-35
2022/06/11 09:29:11;;;;;;;0.10;0.10;;;;;;;21.29;50.31;101878.00;5159876;27;20578;-32
2022/06/11 09:31:53;;;;;;;0.10;0.10;;;;;;;21.29;50.25;101872.47;5157560;27;20070;-34
2022/06/11 09:34:26;;;;;;;0.10;0.10;;;;;;;21.29;50.56;101871.63;5157385;27;20524;-33
2022/06/11 09:37:00;;;;;;;0.10;0.10;;;;;;;21.29;50.51;101872.47;5137420;27;20070;-32
2022/06/11 09:39:37;;;;;;;0.10;0.10;;;;;;;21.29;50.36;101875.25;5155272;27;20076;-32
2022/06/11 09:42:48;;;;;;;0.10;0.10;;;;;;;21.29;50.17;101877.19;5160593;27;20065;-33
2022/06/11 09:45:35;;;;;;;0.10;0.10;;;;;;;21.29;50.21;101880.78;5139176;27;20123;-32
2022/06/11 09:48:19;;;;;;;0.10;0.10;;;;;;;21.29;50.21;101880.78;5164547;27;20046;-32
2022/06/11 09:50:53;;;;;;;0.10;0.10;;;;;;;21.30;50.28;101876.91;5147774;27;20137;-33
2022/06/11 09:53:45;;;;;;;0.10;0.10;;;;;;;21.29;50.37;101874.41;5165802;27;20076;-32
2022/06/11 09:56:51;;;;;;;0.10;0.10;;;;;;;21.29;50.31;101878.00;5148349;27;20070;-34
2022/06/11 09:59:42;;;;;;;0.10;0.10;;;;;;;21.28;50.33;101873.56;5138422;27;20536;-34
2022/06/11 10:04:48;;;;;;;0.10;0.10;;;;;;;21.29;50.21;101883.56;5177257;27;20119;-34
2022/06/11 10:07:17;;;;;;;0.10;0.10;;;;;;;21.30;50.14;101887.16;5165713;27;20077;-34
2022/06/11 10:09:47;;;;;;;0.10;0.10;;;;;;;21.30;50.38;101878.84;5146870;27;20081;-34
2022/06/11 10:12:21;;;;;;;0.10;0.10;;;;;;;21.30;50.35;101885.22;5164999;27;20078;-32
2022/06/11 10:14:58;;;;;;;0.10;0.10;;;;;;;21.29;50.19;101883.56;5162548;27;20077;-32
2022/06/11 10:17:47;;;;;;;0.10;0.10;;;;;;;21.30;50.21;101884.38;5147302;27;20824;-32
2022/06/11 10:20:20;;;;;;;0.10;0.10;;;;;;;21.29;50.22;101891.88;5151859;27;20133;-32
2022/06/11 10:22:55;;;;;;;0.10;0.10;;;;;;;21.29;50.26;101891.03;5166414;27;20077;-32
2022/06/11 10:25:36;;;;;;;0.10;0.10;;;;;;;21.29;50.25;101891.03;5166787;27;20077;-32
2022/06/11 10:28:10;;;;;;;0.10;0.10;;;;;;;21.29;50.30;101899.34;5132462;27;20133;-32
2022/06/11 10:33:47;;;;;;;0.10;0.10;;;;;;;21.28;50.27;101890.19;5158082;27;20641;-34
2022/06/11 10:36:20;;;;;;;0.10;0.10;;;;;;;21.29;50.19;101889.09;5127053;27;20497;-33
2022/06/11 10:38:53;;;;;;;0.10;0.10;;;;;;;21.29;50.19;101891.88;5141204;27;20143;-34
2022/06/11 10:41:32;;;;;;;0.10;0.10;;;;;;;21.29;50.14;101878.00;5139901;27;20129;-34
2022/06/11 10:44:05;;;;;;;0.10;0.10;;;;;;;21.30;50.19;101881.63;5133809;27;20920;-33
2022/06/11 10:46:34;;;;;;;0.20;0.20;;;;;;;21.30;50.34;101873.31;5143327;27;20487;-34
2022/06/11 10:48:59;;;;;;;0.10;0.10;;;;;;;21.29;50.41;101875.25;5129168;27;20054;-34
2022/06/11 10:51:30;;;;;;;0.10;0.10;;;;;;;21.30;50.34;101876.06;5138664;27;20039;-33
2022/06/11 10:54:01;;;;;;;0.10;0.10;;;;;;;21.29;50.18;101872.47;5125654;27;20089;-34
2022/06/11 10:56:40;;;;;;;0.10;0.10;;;;;;;21.29;50.20;101874.41;5139186;27;20130;-33
2022/06/11 10:59:13;;;;;;;0.10;0.10;;;;;;;21.29;50.37;101871.63;5123963;27;20086;-34
2022/06/11 11:01:44;;;;;;;0.10;0.10;;;;;;;21.29;50.35;101861.38;5123764;27;20074;-32
2022/06/11 11:04:30;;;;;;;0.10;0.10;;;;;;;21.29;50.42;101869.69;5137130;27;20603;-33
2022/06/11 11:07:14;;;;;;;0.10;0.10;;;;;;;21.30;50.25;101873.31;5122705;27;20082;-32
2022/06/11 11:09:40;;;;;;;0.20;0.20;;;;;;;21.29;50.24;101861.38;5126406;27;20085;-34
2022/06/11 11:12:12;;;;;;;0.20;0.20;;;;;;;21.29;50.27;101858.63;5125905;27;20055;-32
2022/06/11 11:14:40;;;;;;;0.20;0.20;;;;;;;21.29;50.21;101864.16;5122600;27;20545;-32
2022/06/11 11:17:15;;;;;;;0.10;0.10;;;;;;;21.29;50.33;101863.34;5147399;27;20548;-34
2022/06/11 11:19:43;;;;;;;0.10;0.10;;;;;;;21.28;50.15;101864.41;5125451;27;20051;-32
2022/06/11 11:22:16;;;;;;;0.20;0.20;;;;;;;21.29;50.27;101860.56;5135429;27;20485;-33
2022/06/11 11:24:48;;;;;;;0.10;0.10;;;;;;;21.29;50.27;101858.63;5125705;27;20093;-32
2022/06/11 11:27:23;;;;;;;0.10;0.10;;;;;;;21.28;50.13;101861.66;5122487;27;20075;-35
2022/06/11 11:29:52;;;;;;;0.10;0.10;;;;;;;21.28;50.24;101859.69;5123353;27;20089;-32
2022/06/11 11:32:36;;;;;;;0.10;0.10;;;;;;;21.29;50.34;101860.56;5119553;27;20475;-34
2022/06/11 11:35:24;;;;;;;0.10;0.10;;;;;;;21.29;50.33;101861.38;5119520;27;20073;-34
2022/06/11 11:38:00;;;;;;;0.10;0.10;;;;;;;21.29;50.37;101855.84;5121023;27;20078;-34
2022/06/11 11:43:08;;;;;;;0.10;0.10;;;;;;;21.29;50.30;101853.06;5156116;27;20587;-34
2022/06/11 11:45:47;;;;;;;0.10;0.10;;;;;;;21.28;50.24;101851.38;5137946;27;20070;-34
2022/06/11 11:48:23;;;;;;;0.10;0.10;;;;;;;21.29;50.33;101847.53;5160999;27;20046;-32
2022/06/11 11:50:50;;;;;;;0.10;0.10;;;;;;;21.30;50.19;101851.13;5156468;27;20081;-34
2022/06/11 11:53:30;;;;;;;0.10;0.10;;;;;;;21.29;50.30;101842.00;5154787;27;20074;-34
2022/06/11 11:55:58;;;;;;;0.10;0.10;;;;;;;21.29;50.15;101852.25;5137777;27;20520;-34
2022/06/11 11:58:33;;;;;;;0.10;0.10;;;;;;;21.29;50.26;101847.53;5136355;27;20469;-34
2022/06/11 12:01:04;;;;;;;0.10;0.10;;;;;;;21.28;50.29;101848.63;5158536;27;20095;-33
2022/06/11 12:03:51;;;;;;;0.10;0.10;;;;;;;21.30;50.36;101846.44;5142755;27;20076;-34
2022/06/11 12:06:26;;;;;;;0.10;0.10;;;;;;;21.30;50.25;101851.13;5137132;27;20081;-33